Terminal Aerodrome Forecast
Issued by NWS Dallas/Fort Worth, TX

Home | Current Version | Previous Version | Text Only | Print | Product List | Glossary On
Versions: 1 2 3 4 5 6 7 8 9 10 11 12 13 14 15 16 17 18 19 20 21 22 23 24 25 26 27 28 29 30 31 32 33 34 35
000
FTUS44 KFWD 221502 AAC
TAFDFW
TAF AMD
KDFW 221502Z 2215/2318 36009KT 3SM -SHRA BR VCTS BKN006 OVC035CB
      TEMPO 2215/2217 04015KT 1SM TSRA BR OVC004CB
     FM221730 35008KT 4SM -SHRA BR OVC009
     FM230000 34007KT P6SM SCT008 OVC012
     FM231100 03005KT 5SM SHRA BR VCTS OVC008CB
     FM231500 05005KT P6SM VCSH SCT008 OVC015=

USA.gov is the U.S. government's official web portal to all federal, state and local government web resources and services.